Time;durP1;ratioP1;P1;durP2;ratioP2;P2;SDS_P1;SDS_P2;PMS_P1;PMS_P2;Temp;Humidity;BMP_temperature;BMP_pressure;BME280_temperature;BME280_humidity;BME280_pressure;Samples;Min_cycle;Max_cycle;Signal;HPM_P1;HPM_P2
2022/12/06 00:00:55;;;;;;;;;;;;;;;-10.10;66.49;101588.69;5106004;28;19927;-69
2022/12/06 00:03:21;;;;;;;;;;;;;;;-10.02;66.10;101588.22;5105054;28;19931;-69
2022/12/06 00:05:47;;;;;;;;;;;;;;;-10.04;65.92;101580.38;5088270;28;19928;-68
2022/12/06 00:08:12;;;;;;;;;;;;;;;-10.02;65.80;101581.13;5086197;28;19974;-68
2022/12/06 00:10:38;;;;;;;;;;;;;;;-10.00;65.70;101578.38;5105296;28;20815;-69
2022/12/06 00:13:04;;;;;;;;;;;;;;;-9.98;65.63;101579.16;5107933;28;19934;-69
2022/12/06 00:15:34;;;;;;;;;;;;;;;-10.01;65.71;101574.88;5104764;28;20403;-68
2022/12/06 00:17:59;;;;;;;;;;;;;;;-10.04;65.72;101576.88;5106105;28;19934;-68
2022/12/06 00:20:25;;;;;;;;;;;;;;;-10.06;65.10;101569.06;5102304;28;19928;-68
2022/12/06 00:22:51;;;;;;;;;;;;;;;-10.04;65.11;101568.94;5102029;28;20342;-68
2022/12/06 00:25:16;;;;;;;;;;;;;;;-10.04;65.04;101569.81;5103963;28;20516;-68
2022/12/06 00:27:42;;;;;;;;;;;;;;;-10.05;64.96;101560.16;5105624;28;19935;-68
2022/12/06 00:30:08;;;;;;;;;;;;;;;-10.03;65.05;101552.09;5087425;28;20018;-68
2022/12/06 00:32:35;;;;;;;;;;;;;;;-10.05;64.88;101562.81;5086276;28;20361;-69
2022/12/06 00:35:01;;;;;;;;;;;;;;;-10.04;64.80;101551.28;5084407;28;20019;-69
2022/12/06 00:37:28;;;;;;;;;;;;;;;-10.05;64.78;101552.22;5085414;28;20014;-68
2022/12/06 00:39:54;;;;;;;;;;;;;;;-10.02;64.84;101551.16;5084496;28;19943;-68
2022/12/06 00:42:20;;;;;;;;;;;;;;;-10.06;64.75;101542.59;5082991;28;19985;-68
2022/12/06 00:44:45;;;;;;;;;;;;;;;-10.07;64.90;101542.66;5082573;28;20027;-68
2022/12/06 00:47:11;;;;;;;;;;;;;;;-10.11;64.83;101544.66;5065750;28;19931;-68
2022/12/06 00:49:38;;;;;;;;;;;;;;;-10.12;64.97;101541.16;5083750;28;19927;-68
2022/12/06 00:52:04;;;;;;;;;;;;;;;-10.10;65.07;101549.00;5086290;28;19978;-68
2022/12/06 00:54:29;;;;;;;;;;;;;;;-10.09;64.88;101540.09;5083841;28;20391;-68
2022/12/06 00:56:55;;;;;;;;;;;;;;;-10.11;65.09;101536.72;5083854;28;19932;-68
2022/12/06 00:59:21;;;;;;;;;;;;;;;-10.09;65.16;101539.28;5082271;28;19928;-68
2022/12/06 01:01:47;;;;;;;;;;;;;;;-10.07;64.75;101538.19;5085828;28;19934;-69
2022/12/06 01:04:12;;;;;;;;;;;;;;;-10.09;64.90;101526.88;5102206;28;19963;-68
2022/12/06 01:06:40;;;;;;;;;;;;;;;-10.13;65.05;101528.88;5103599;28;19974;-68
2022/12/06 01:09:07;;;;;;;;;;;;;;;-10.17;65.08;101522.06;5104793;28;20457;-68
2022/12/06 01:11:33;;;;;;;;;;;;;;;-10.23;65.14;101513.66;5104141;28;19935;-69
2022/12/06 01:13:59;;;;;;;;;;;;;;;-10.23;65.32;101513.66;5088624;28;19934;-65
2022/12/06 01:16:25;;;;;;;;;;;;;;;-10.19;65.45;101508.09;5083791;28;20393;-65
2022/12/06 01:18:52;;;;;;;;;;;;;;;-10.21;65.23;101509.16;5084271;28;19932;-64
2022/12/06 01:21:18;;;;;;;;;;;;;;;-10.16;65.06;101507.88;5084532;28;20072;-65
2022/12/06 01:23:46;;;;;;;;;;;;;;;-10.09;64.99;101512.81;5093207;28;19928;-64
2022/12/06 01:26:14;;;;;;;;;;;;;;;-10.08;64.32;101511.84;5083534;28;19968;-68
2022/12/06 01:28:39;;;;;;;;;;;;;;;-10.10;64.54;101506.66;5080205;28;20034;-68
2022/12/06 01:31:06;;;;;;;;;;;;;;;-10.09;64.25;101515.44;5080827;28;20023;-64
2022/12/06 01:33:31;;;;;;;;;;;;;;;-10.15;64.39;101520.16;5083882;28;19989;-64
2022/12/06 01:35:57;;;;;;;;;;;;;;;-10.18;64.44;101501.84;5103648;28;19971;-64
2022/12/06 01:38:23;;;;;;;;;;;;;;;-10.26;64.69;101491.75;5103009;28;19939;-64
2022/12/06 01:40:50;;;;;;;;;;;;;;;-10.12;64.90;101503.25;5093517;28;19935;-65
2022/12/06 01:43:32;;;;;;;;;;;;;;;-10.13;64.67;101505.06;5083678;28;20380;-65
2022/12/06 01:46:01;;;;;;;;;;;;;;;-10.09;64.79;101505.69;5097882;28;19944;-65
2022/12/06 01:48:27;;;;;;;;;;;;;;;-10.07;64.67;101502.97;5100430;28;19935;-65
2022/12/06 01:50:55;;;;;;;;;;;;;;;-10.12;64.41;101500.59;5100313;28;19935;-64
2022/12/06 01:53:21;;;;;;;;;;;;;;;-10.17;64.68;101506.19;5085093;28;20422;-64
2022/12/06 01:55:47;;;;;;;;;;;;;;;-10.21;65.04;101499.41;5095816;28;19934;-64
2022/12/06 01:58:17;;;;;;;;;;;;;;;-10.20;65.08;101485.22;5080909;28;19928;-64
2022/12/06 02:00:43;;;;;;;;;;;;;;;-10.20;64.72;101487.03;5079770;28;19928;-65
2022/12/06 02:03:11;;;;;;;;;;;;;;;-10.22;64.93;101491.53;5080438;28;19928;-65
2022/12/06 02:05:37;;;;;;;;;;;;;;;-10.26;65.18;101490.91;5083739;28;20034;-64
2022/12/06 02:08:03;;;;;;;;;;;;;;;-10.24;65.20;101483.72;5102494;28;20019;-65
2022/12/06 02:10:30;;;;;;;;;;;;;;;-10.19;64.84;101478.97;5103732;28;19951;-64
2022/12/06 02:12:57;;;;;;;;;;;;;;;-10.17;64.87;101481.53;5093517;28;19928;-65
2022/12/06 02:15:49;;;;;;;;;;;;;;;-10.19;64.54;101468.38;5064584;28;20322;-64
2022/12/06 02:18:18;;;;;;;;;;;;;;;-10.10;64.71;101474.88;5099148;28;19927;-65
2022/12/06 02:20:46;;;;;;;;;;;;;;;-10.10;64.33;101477.53;5101415;28;19932;-65
2022/12/06 02:23:28;;;;;;;;;;;;;;;-10.08;64.55;101475.63;5106793;28;20204;-64
2022/12/06 02:26:05;;;;;;;;;;;;;;;-10.08;64.54;101466.88;5104902;28;19928;-65
2022/12/06 02:28:42;;;;;;;;;;;;;;;-10.07;64.93;101464.09;5104750;28;19988;-64
2022/12/06 02:31:14;;;;;;;;;;;;;;;-10.10;64.94;101459.00;5102538;28;19973;-65
2022/12/06 02:33:43;;;;;;;;;;;;;;;-10.04;64.60;101450.69;5102705;28;20389;-65
2022/12/06 02:36:14;;;;;;;;;;;;;;;-10.01;64.66;101455.78;5102029;28;20434;-64
2022/12/06 02:38:42;;;;;;;;;;;;;;;-10.00;64.86;101451.31;5100825;28;20155;-65
2022/12/06 02:41:11;;;;;;;;;;;;;;;-9.98;64.63;101460.88;5100364;28;20322;-65
2022/12/06 02:43:41;;;;;;;;;;;;;;;-9.96;64.35;101463.44;5105415;28;20023;-65
2022/12/06 02:46:08;;;;;;;;;;;;;;;-9.99;64.46;101455.66;5107350;28;19934;-64
2022/12/06 02:48:35;;;;;;;;;;;;;;;-9.99;64.55;101466.25;5103046;28;19978;-64
2022/12/06 02:51:04;;;;;;;;;;;;;;;-10.04;64.72;101445.41;5108240;28;19928;-65
2022/12/06 02:53:33;;;;;;;;;;;;;;;-10.02;64.82;101448.78;5091791;28;19936;-65
2022/12/06 02:55:58;;;;;;;;;;;;;;;-10.06;64.73;101447.31;5085016;28;19971;-65
2022/12/06 02:58:24;;;;;;;;;;;;;;;-10.08;64.49;101445.69;5086452;28;19966;-65
2022/12/06 03:00:52;;;;;;;;;;;;;;;-10.09;64.92;101447.47;5091840;28;20326;-65
2022/12/06 03:03:37;;;;;;;;;;;;;;;-10.11;64.84;101447.59;5085277;28;20303;-65
2022/12/06 03:06:15;;;;;;;;;;;;;;;-10.09;64.64;101441.34;5086148;28;19935;-64
2022/12/06 03:08:46;;;;;;;;;;;;;;;-10.36;64.87;101418.34;5086646;28;20022;-64
2022/12/06 03:11:12;;;;;;;;;;;;;;;-10.16;64.93;101444.38;5084312;28;19928;-64
2022/12/06 03:13:43;;;;;;;;;;;;;;;-10.13;65.00;101446.84;5085908;28;20466;-65
2022/12/06 03:16:14;;;;;;;;;;;;;;;-10.15;64.86;101447.88;5085266;28;20310;-65
2022/12/06 03:18:42;;;;;;;;;;;;;;;-10.16;64.97;101432.97;5084471;28;20491;-64
2022/12/06 03:21:12;;;;;;;;;;;;;;;-10.15;64.82;101438.13;5079900;28;19928;-65
2022/12/06 03:23:39;;;;;;;;;;;;;;;-10.14;65.15;101429.28;5047380;28;19939;-65
2022/12/06 03:26:09;;;;;;;;;;;;;;;-10.10;65.21;101437.84;5063221;28;19934;-64
2022/12/06 03:28:36;;;;;;;;;;;;;;;-10.02;65.28;101443.50;5071085;28;19928;-65
2022/12/06 03:31:04;;;;;;;;;;;;;;;-10.02;64.82;101437.34;5088106;28;20042;-64
2022/12/06 03:33:32;;;;;;;;;;;;;;;-10.07;65.03;101437.63;5083597;28;19928;-65
2022/12/06 03:35:58;;;;;;;;;;;;;;;-10.04;64.98;101437.47;5085240;28;19978;-65
2022/12/06 03:38:29;;;;;;;;;;;;;;;-10.04;64.71;101432.16;5084236;28;20043;-65
2022/12/06 03:40:56;;;;;;;;;;;;;;;-10.03;65.20;101425.91;5084867;28;19934;-65
2022/12/06 03:43:22;;;;;;;;;;;;;;;-10.01;65.24;101424.00;5100692;28;19928;-65
2022/12/06 03:45:52;;;;;;;;;;;;;;;-10.04;65.34;101426.00;5107323;28;19934;-65
2022/12/06 03:48:20;;;;;;;;;;;;;;;-10.03;65.35;101420.63;5101310;28;19928;-65
2022/12/06 03:50:49;;;;;;;;;;;;;;;-10.01;65.36;101418.72;5087244;28;19928;-64
2022/12/06 03:53:15;;;;;;;;;;;;;;;-10.02;65.35;101409.09;5095463;28;19928;-64
2022/12/06 03:55:43;;;;;;;;;;;;;;;-10.01;65.03;101412.56;5105500;28;19927;-64
2022/12/06 03:58:09;;;;;;;;;;;;;;;-10.10;65.31;101411.38;5090909;28;19932;-64
2022/12/06 04:00:35;;;;;;;;;;;;;;;-10.19;65.74;101410.19;5085109;28;20386;-64
2022/12/06 04:03:00;;;;;;;;;;;;;;;-10.23;65.84;101391.94;5086013;28;19928;-66
2022/12/06 04:05:26;;;;;;;;;;;;;;;-10.27;65.65;101409.84;5074819;28;19968;-65
2022/12/06 04:07:52;;;;;;;;;;;;;;;-10.31;65.54;101392.44;5078897;28;19935;-64
2022/12/06 04:10:17;;;;;;;;;;;;;;;-10.40;65.68;101396.53;5066224;28;19934;-64
2022/12/06 04:12:59;;;;;;;;;;;;;;;-10.46;66.01;101395.16;5084951;28;19935;-64
2022/12/06 04:15:25;;;;;;;;;;;;;;;-10.51;66.25;101399.91;5085940;28;19931;-64
2022/12/06 04:18:09;;;;;;;;;;;;;;;-10.52;66.08;101387.63;5086004;28;19939;-69
2022/12/06 04:23:23;;;;;;;;;;;;;;;-10.64;66.22;101393.69;5086598;28;19927;-68
2022/12/06 04:25:48;;;;;;;;;;;;;;;-10.68;66.67;101388.63;5064067;28;19935;-68
2022/12/06 04:39:13;;;;;;;;;;;;;;;-10.75;67.88;101384.66;5085400;28;20322;-65
2022/12/06 04:44:24;;;;;;;;;;;;;;;-10.78;67.59;101376.06;5107701;28;19927;-65
2022/12/06 04:46:50;;;;;;;;;;;;;;;-10.79;68.10;101369.09;5086394;28;19983;-69
2022/12/06 04:49:16;;;;;;;;;;;;;;;-10.81;67.80;101373.63;5085727;28;19971;-67
2022/12/06 04:51:42;;;;;;;;;;;;;;;-10.80;68.25;101376.16;4747737;28;10000293;-69
2022/12/06 04:54:08;;;;;;;;;;;;;;;-10.76;68.20;101384.75;5093707;27;19931;-68
2022/12/06 04:56:33;;;;;;;;;;;;;;;-10.72;67.74;101376.53;5064572;28;19970;-68
2022/12/06 04:58:59;;;;;;;;;;;;;;;-10.68;67.62;101374.56;5065766;28;19950;-68
2022/12/06 05:01:26;;;;;;;;;;;;;;;-10.64;67.10;101372.53;5076687;28;19928;-68
2022/12/06 05:03:52;;;;;;;;;;;;;;;-10.62;67.54;101376.81;5084113;28;19935;-68
2022/12/06 05:06:18;;;;;;;;;;;;;;;-10.57;67.25;101379.16;5095529;28;19927;-68
2022/12/06 05:08:43;;;;;;;;;;;;;;;-10.52;67.27;101377.06;5104385;28;20030;-68
2022/12/06 05:11:09;;;;;;;;;;;;;;;-10.50;66.97;101371.69;5103113;28;19927;-68
2022/12/06 05:13:35;;;;;;;;;;;;;;;-10.48;66.72;101373.25;5087987;28;20483;-68
2022/12/06 05:16:03;;;;;;;;;;;;;;;-10.48;66.77;101375.06;5086033;28;19932;-68
2022/12/06 05:18:30;;;;;;;;;;;;;;;-10.48;66.89;101381.19;5092310;28;20399;-69
2022/12/06 05:21:03;;;;;;;;;;;;;;;-10.45;67.10;101377.50;5080235;28;19927;-68
2022/12/06 05:23:29;;;;;;;;;;;;;;;-10.37;66.80;101374.34;5072341;28;19928;-68
2022/12/06 05:25:56;;;;;;;;;;;;;;;-10.40;66.13;101380.66;5085524;28;19928;-68
2022/12/06 05:28:22;;;;;;;;;;;;;;;-10.42;66.55;101377.31;5086534;28;19934;-68
2022/12/06 05:30:48;;;;;;;;;;;;;;;-10.47;66.33;101371.47;5081392;28;20195;-68
2022/12/06 05:33:13;;;;;;;;;;;;;;;-10.50;66.81;101369.03;5078654;28;19928;-68
2022/12/06 05:35:41;;;;;;;;;;;;;;;-10.54;66.98;101371.84;5075487;28;19970;-68
2022/12/06 05:38:06;;;;;;;;;;;;;;;-10.54;66.61;101368.38;5072720;28;19935;-68
2022/12/06 05:40:32;;;;;;;;;;;;;;;-10.56;66.91;101363.16;5071552;28;20322;-68
2022/12/06 05:42:58;;;;;;;;;;;;;;;-10.55;66.67;101358.75;5074627;28;19932;-68
2022/12/06 05:45:23;;;;;;;;;;;;;;;-10.65;66.90;101333.84;5075091;28;20574;-68
2022/12/06 05:47:49;;;;;;;;;;;;;;;-10.52;66.82;101363.84;5056893;28;20007;-68
2022/12/06 05:50:15;;;;;;;;;;;;;;;-10.46;66.56;101362.59;5062421;28;19936;-68
2022/12/06 05:52:42;;;;;;;;;;;;;;;-10.39;66.61;101361.19;5087322;28;19963;-68
2022/12/06 05:55:08;;;;;;;;;;;;;;;-10.31;66.41;101366.00;5104932;28;19980;-68
2022/12/06 05:57:34;;;;;;;;;;;;;;;-10.30;65.97;101354.47;5089597;28;19928;-68
2022/12/06 05:59:59;;;;;;;;;;;;;;;-10.41;65.94;101340.19;5086495;28;19932;-68
2022/12/06 06:02:25;;;;;;;;;;;;;;;-10.33;65.71;101349.38;5085967;28;19928;-68
2022/12/06 06:04:52;;;;;;;;;;;;;;;-10.32;65.85;101356.34;5084598;28;19981;-68
2022/12/06 06:07:17;;;;;;;;;;;;;;;-10.28;65.40;101366.66;5098254;28;19928;-68
2022/12/06 06:09:44;;;;;;;;;;;;;;;-10.29;65.40;101358.84;5088269;28;20301;-68
2022/12/06 06:12:10;;;;;;;;;;;;;;;-10.30;65.42;101347.38;5090029;28;20043;-68
2022/12/06 06:14:36;;;;;;;;;;;;;;;-10.21;65.64;101353.03;5099418;28;20022;-68
2022/12/06 06:17:02;;;;;;;;;;;;;;;-10.23;65.43;101352.25;5094402;28;20597;-68
2022/12/06 06:19:27;;;;;;;;;;;;;;;-10.27;65.24;101335.75;5074552;28;20395;-68
2022/12/06 06:21:53;;;;;;;;;;;;;;;-10.25;65.34;101344.44;5068619;28;19940;-68
2022/12/06 06:24:19;;;;;;;;;;;;;;;-10.21;65.21;101345.09;5068931;28;20022;-68
2022/12/06 06:26:46;;;;;;;;;;;;;;;-10.19;64.91;101338.72;5079536;28;20031;-68
2022/12/06 06:29:12;;;;;;;;;;;;;;;-10.16;65.03;101338.53;5101879;28;19932;-68
2022/12/06 06:31:38;;;;;;;;;;;;;;;-10.15;64.55;101334.94;5094614;28;19934;-69
2022/12/06 06:34:04;;;;;;;;;;;;;;;-10.11;64.64;101336.44;5098267;28;19928;-68
2022/12/06 06:36:30;;;;;;;;;;;;;;;-10.06;64.70;101346.72;5097793;28;20022;-68
2022/12/06 06:38:57;;;;;;;;;;;;;;;-10.02;64.30;101339.41;5099474;28;20359;-68
2022/12/06 06:41:23;;;;;;;;;;;;;;;-10.01;64.05;101347.25;5101101;28;19927;-68
2022/12/06 06:43:50;;;;;;;;;;;;;;;-10.01;64.44;101344.63;5102029;28;20351;-68
2022/12/06 06:46:16;;;;;;;;;;;;;;;-9.93;64.38;101348.53;5112054;28;20320;-68
2022/12/06 06:48:42;;;;;;;;;;;;;;;-9.90;63.86;101354.47;5107692;28;19927;-68
2022/12/06 06:51:08;;;;;;;;;;;;;;;-9.95;64.09;101355.72;5095400;28;19934;-69
2022/12/06 06:53:34;;;;;;;;;;;;;;;-9.91;63.73;101354.56;5094597;28;19973;-68
2022/12/06 06:56:01;;;;;;;;;;;;;;;-9.81;63.75;101350.34;5109076;28;19931;-68
2022/12/06 06:58:27;;;;;;;;;;;;;;;-9.69;63.50;101359.25;5098270;28;20027;-68
2022/12/06 07:00:55;;;;;;;;;;;;;;;-9.61;63.43;101359.59;5089998;28;19932;-68
2022/12/06 07:03:21;;;;;;;;;;;;;;;-9.58;63.00;101359.38;5090783;28;19950;-68
2022/12/06 07:05:50;;;;;;;;;;;;;;;-9.58;63.16;101363.84;5091162;28;20419;-68
2022/12/06 07:08:16;;;;;;;;;;;;;;;-9.51;62.88;101359.81;5094159;28;20407;-68
2022/12/06 07:10:47;;;;;;;;;;;;;;;-9.46;62.17;101351.56;5106369;28;19938;-68
2022/12/06 07:13:13;;;;;;;;;;;;;;;-9.54;62.69;101344.97;5090173;28;19973;-68
2022/12/06 07:15:38;;;;;;;;;;;;;;;-9.55;62.69;101345.94;5108036;28;19928;-69
2022/12/06 07:18:06;;;;;;;;;;;;;;;-9.64;62.68;101359.81;5098834;28;19974;-68
2022/12/06 07:20:31;;;;;;;;;;;;;;;-9.75;62.59;101349.97;5089694;28;19951;-68
2022/12/06 07:22:57;;;;;;;;;;;;;;;-9.84;63.11;101342.63;5089962;28;20450;-68
2022/12/06 07:25:23;;;;;;;;;;;;;;;-9.80;63.23;101352.06;5090589;28;19940;-68
2022/12/06 07:27:48;;;;;;;;;;;;;;;-9.62;63.50;101344.66;5091186;28;19938;-68
2022/12/06 07:30:14;;;;;;;;;;;;;;;-9.55;62.63;101358.34;5090539;28;19928;-68
2022/12/06 07:32:40;;;;;;;;;;;;;;;-9.60;62.42;101348.06;5089300;28;19950;-68
2022/12/06 07:35:08;;;;;;;;;;;;;;;-9.61;62.88;101353.44;5088946;28;19928;-68
2022/12/06 07:37:34;;;;;;;;;;;;;;;-9.58;62.62;101350.59;5092021;28;19928;-68
2022/12/06 07:39:59;;;;;;;;;;;;;;;-9.59;62.63;101349.75;5095965;28;19996;-68
2022/12/06 07:45:23;;;;;;;;;;;;;;;-9.49;62.95;101343.81;5050398;28;19935;-68
2022/12/06 07:47:48;;;;;;;;;;;;;;;-9.38;62.51;101351.84;5096384;28;19927;-68
2022/12/06 07:50:16;;;;;;;;;;;;;;;-9.33;62.20;101347.13;5097406;28;20422;-68
2022/12/06 07:52:42;;;;;;;;;;;;;;;-9.33;62.46;101352.41;5101101;28;19928;-68
2022/12/06 07:55:09;;;;;;;;;;;;;;;-9.34;62.08;101342.78;5102160;28;19957;-68
2022/12/06 07:57:35;;;;;;;;;;;;;;;-9.40;62.15;101345.81;5071948;28;20314;-68
2022/12/06 08:00:01;;;;;;;;;;;;;;;-9.42;62.50;101345.09;5107891;28;20055;-68
2022/12/06 08:02:37;;;;;;;;;;;;;;;-9.36;62.25;101341.16;5105796;28;19932;-68
2022/12/06 08:05:03;;;;;;;;;;;;;;;-9.33;62.61;101338.28;5108191;28;20358;-68
2022/12/06 08:07:31;;;;;;;;;;;;;;;-9.27;62.48;101337.88;5109862;28;20030;-68
2022/12/06 08:09:56;;;;;;;;;;;;;;;-9.32;61.99;101326.75;5108428;28;19934;-69
2022/12/06 08:12:22;;;;;;;;;;;;;;;-9.21;62.51;101328.63;5110950;28;19928;-68
2022/12/06 08:14:48;;;;;;;;;;;;;;;-9.08;62.20;101326.81;5106407;28;19967;-69
2022/12/06 08:17:14;;;;;;;;;;;;;;;-8.96;61.57;101322.47;5108943;28;20675;-69
2022/12/06 08:19:39;;;;;;;;;;;;;;;-8.59;60.63;101332.19;5109960;28;20299;-68
2022/12/06 08:22:05;;;;;;;;;;;;;;;-7.54;59.28;101323.50;5107667;28;19928;-69
2022/12/06 08:24:32;;;;;;;;;;;;;;;-6.61;56.06;101320.66;5105491;28;19932;-69
2022/12/06 08:26:59;;;;;;;;;;;;;;;-6.25;54.00;101320.44;5102264;28;19932;-68
2022/12/06 08:29:24;;;;;;;;;;;;;;;-6.21;53.24;101313.88;5098941;28;20026;-68
2022/12/06 08:31:50;;;;;;;;;;;;;;;-6.22;53.19;101304.19;5098576;28;20019;-68
2022/12/06 08:34:16;;;;;;;;;;;;;;;-6.01;52.18;101286.41;5107300;28;19927;-69
2022/12/06 08:36:42;;;;;;;;;;;;;;;-5.87;51.76;101295.88;5109964;28;19936;-69
2022/12/06 08:39:09;;;;;;;;;;;;;;;-5.82;51.98;101292.84;5108309;28;19928;-69
2022/12/06 08:41:54;;;;;;;;;;;;;;;-5.64;51.40;101289.56;5105940;28;20140;-68
2022/12/06 08:44:20;;;;;;;;;;;;;;;-5.42;50.64;101284.06;5104909;28;20040;-69
2022/12/06 08:46:46;;;;;;;;;;;;;;;-5.29;50.34;101285.66;5108573;28;20323;-68
2022/12/06 08:49:12;;;;;;;;;;;;;;;-4.76;49.97;101281.88;5109477;28;19935;-69
2022/12/06 08:51:38;;;;;;;;;;;;;;;-4.42;48.98;101276.16;5107423;28;19927;-69
2022/12/06 08:54:04;;;;;;;;;;;;;;;-4.29;47.77;101275.03;5106977;28;19934;-69
2022/12/06 08:56:30;;;;;;;;;;;;;;;-4.17;48.34;101271.25;5100582;28;19936;-69
2022/12/06 08:58:57;;;;;;;;;;;;;;;-3.67;47.03;101271.16;5108109;28;19967;-69
2022/12/06 09:01:24;;;;;;;;;;;;;;;-3.51;46.24;101266.06;5098042;28;19978;-69
2022/12/06 09:03:50;;;;;;;;;;;;;;;-3.42;45.68;101264.34;5089720;28;19950;-69
2022/12/06 09:06:16;;;;;;;;;;;;;;;-3.28;45.15;101269.22;5088556;28;20454;-69
2022/12/06 09:08:42;;;;;;;;;;;;;;;-3.42;45.03;101264.34;5089916;28;20403;-69
2022/12/06 09:11:07;;;;;;;;;;;;;;;-3.33;45.06;101273.31;5106771;28;19959;-69
2022/12/06 09:13:33;;;;;;;;;;;;;;;-3.26;45.26;101261.00;5098241;28;20299;-69
2022/12/06 09:16:03;;;;;;;;;;;;;;;-3.07;44.49;101257.41;5103571;28;19966;-69
2022/12/06 09:18:29;;;;;;;;;;;;;;;-2.94;44.40;101264.25;5093546;28;19955;-69
2022/12/06 09:20:55;;;;;;;;;;;;;;;-2.76;43.85;101265.13;5099454;28;19927;-69
2022/12/06 09:23:20;;;;;;;;;;;;;;;-3.18;43.67;101253.09;5093291;28;19928;-69
2022/12/06 09:25:46;;;;;;;;;;;;;;;-3.18;44.12;101252.25;5089868;28;20030;-69
2022/12/06 09:28:12;;;;;;;;;;;;;;;-3.05;44.27;101254.56;5099762;28;19939;-69
2022/12/06 09:30:38;;;;;;;;;;;;;;;-2.94;43.07;101246.34;5100921;28;19973;-69
2022/12/06 09:33:07;;;;;;;;;;;;;;;-2.79;43.18;101249.38;5087658;28;20458;-69
2022/12/06 09:35:34;;;;;;;;;;;;;;;-2.33;42.46;101243.09;5106711;28;19968;-69
2022/12/06 09:38:00;;;;;;;;;;;;;;;-2.04;41.71;101237.47;5100019;28;19950;-69
2022/12/06 09:40:30;;;;;;;;;;;;;;;-2.16;41.69;101252.97;5097325;27;19959;-69
2022/12/06 09:43:03;;;;;;;;;;;;;;;-1.72;40.73;101243.19;5085268;28;19935;-69
2022/12/06 09:45:35;;;;;;;;;;;;;;;-1.34;40.86;101237.53;5091534;28;19935;-70
2022/12/06 09:48:22;;;;;;;;;;;;;;;-1.19;40.25;101235.09;5095078;28;20014;-69
2022/12/06 09:50:57;;;;;;;;;;;;;;;-1.44;39.51;101229.59;5087333;28;19928;-69
2022/12/06 09:53:28;;;;;;;;;;;;;;;-1.65;40.52;101232.66;5094708;28;19928;-70
2022/12/06 09:55:59;;;;;;;;;;;;;;;-2.03;40.52;101231.09;5107937;28;20366;-69
2022/12/06 09:58:32;;;;;;;;;;;;;;;-1.79;40.04;101231.41;5108510;28;19927;-69
2022/12/06 10:01:05;;;;;;;;;;;;;;;-2.18;40.10;101228.16;5107321;28;20042;-69
2022/12/06 10:03:50;;;;;;;;;;;;;;;-2.11;40.58;101217.63;5105503;28;19928;-69
2022/12/06 10:06:19;;;;;;;;;;;;;;;-1.57;39.37;101214.78;5086620;28;19927;-69
2022/12/06 10:08:52;;;;;;;;;;;;;;;-1.36;38.62;101221.59;5103168;28;19928;-69
2022/12/06 10:11:25;;;;;;;;;;;;;;;-1.39;39.15;101208.50;5106039;28;19927;-69
2022/12/06 10:13:57;;;;;;;;;;;;;;;-1.03;38.47;101205.59;5106837;28;19927;-69
2022/12/06 10:16:29;;;;;;;;;;;;;;;-0.94;38.54;101214.53;5106663;28;20444;-69
2022/12/06 10:19:02;;;;;;;;;;;;;;;-0.86;37.41;101189.53;5105103;28;19982;-69
2022/12/06 10:21:36;;;;;;;;;;;;;;;-0.77;36.75;101206.50;5107337;28;20555;-69
2022/12/06 10:24:10;;;;;;;;;;;;;;;-0.90;37.06;101204.28;5072751;28;20423;-69
2022/12/06 10:26:39;;;;;;;;;;;;;;;-0.97;36.83;101208.63;5089198;28;20417;-69
2022/12/06 10:29:10;;;;;;;;;;;;;;;-1.00;37.78;101205.28;5095141;28;19927;-69
2022/12/06 10:31:41;;;;;;;;;;;;;;;-0.80;36.94;101193.41;5085946;28;19950;-69
2022/12/06 10:34:13;;;;;;;;;;;;;;;-0.91;37.65;101197.25;5085734;28;20383;-69
2022/12/06 10:36:43;;;;;;;;;;;;;;;-0.54;36.39;101187.88;5087551;28;19954;-65
2022/12/06 10:39:13;;;;;;;;;;;;;;;-0.57;36.40;101190.91;5086238;28;19934;-66
2022/12/06 10:41:42;;;;;;;;;;;;;;;-0.41;35.54;101194.63;5104803;28;20027;-65
2022/12/06 10:44:12;;;;;;;;;;;;;;;-0.46;35.71;101187.91;5106249;28;20456;-65
2022/12/06 10:49:28;;;;;;;;;;;;;;;-0.08;35.90;101173.06;5106974;28;20072;-66
2022/12/06 10:51:59;;;;;;;;;;;;;;;-0.08;35.45;101171.25;5098698;28;19928;-66
2022/12/06 10:54:29;;;;;;;;;;;;;;;-0.12;35.16;101180.63;5105574;28;20421;-66
2022/12/06 10:56:56;;;;;;;;;;;;;;;-0.08;35.46;101173.06;5082479;28;20471;-66
2022/12/06 10:59:28;;;;;;;;;;;;;;;0.12;34.54;101170.84;5096684;28;19934;-65
2022/12/06 11:01:57;;;;;;;;;;;;;;;-0.54;35.28;101171.75;5090273;28;19928;-66
2022/12/06 11:04:24;;;;;;;;;;;;;;;-0.71;35.43;101173.59;5093741;28;19981;-65
2022/12/06 11:06:52;;;;;;;;;;;;;;;-0.82;35.79;101169.38;5069671;28;19928;-66
2022/12/06 11:09:22;;;;;;;;;;;;;;;-0.88;35.74;101170.88;5095248;28;19941;-65
2022/12/06 11:11:49;;;;;;;;;;;;;;;-1.15;35.90;101166.63;5110358;28;19927;-65
2022/12/06 11:14:19;;;;;;;;;;;;;;;-1.75;37.26;101160.38;5109773;28;19928;-66
2022/12/06 11:16:52;;;;;;;;;;;;;;;-2.04;37.44;101162.41;5110080;28;19927;-66
2022/12/06 11:19:22;;;;;;;;;;;;;;;-2.51;38.51;101154.69;5100207;28;19928;-66
2022/12/06 11:21:52;;;;;;;;;;;;;;;-3.19;39.58;101157.75;5096486;28;19981;-65
2022/12/06 11:24:24;;;;;;;;;;;;;;;-3.94;40.80;101155.19;5099750;28;20027;-66
2022/12/06 11:26:52;;;;;;;;;;;;;;;-4.46;42.44;101161.75;5095607;28;20302;-65
2022/12/06 11:29:18;;;;;;;;;;;;;;;-4.64;42.71;101151.78;5098983;28;20318;-65
2022/12/06 11:31:45;;;;;;;;;;;;;;;-4.97;43.80;101159.22;5105127;28;19928;-65
2022/12/06 11:34:14;;;;;;;;;;;;;;;-5.18;44.60;101162.88;5100105;28;19947;-66
2022/12/06 11:36:40;;;;;;;;;;;;;;;-5.24;44.51;101160.72;5099789;28;20026;-65
2022/12/06 11:39:06;;;;;;;;;;;;;;;-5.15;44.70;101162.59;5095572;28;19927;-65
2022/12/06 11:41:35;;;;;;;;;;;;;;;-4.82;44.48;101162.34;5100197;28;19934;-65
2022/12/06 11:44:01;;;;;;;;;;;;;;;-4.19;43.52;101145.00;5100056;28;20420;-65
2022/12/06 11:46:27;;;;;;;;;;;;;;;-3.62;42.23;101148.56;5098476;28;20030;-66
2022/12/06 11:48:56;;;;;;;;;;;;;;;-3.06;41.23;101138.66;5099137;28;20534;-65
2022/12/06 11:51:23;;;;;;;;;;;;;;;-2.77;40.42;101144.75;5097862;28;20022;-66
2022/12/06 11:53:54;;;;;;;;;;;;;;;-2.82;40.36;101142.53;5099479;28;19927;-65
2022/12/06 11:56:22;;;;;;;;;;;;;;;-2.81;40.33;101127.34;5099291;28;20441;-66
2022/12/06 11:58:54;;;;;;;;;;;;;;;-2.96;40.40;101127.88;5096401;28;19935;-65
2022/12/06 12:01:35;;;;;;;;;;;;;;;-3.13;41.14;101126.84;5079345;28;19927;-66
2022/12/06 12:04:20;;;;;;;;;;;;;;;-2.77;40.81;101131.38;5098149;28;20034;-65
2022/12/06 12:06:46;;;;;;;;;;;;;;;-2.59;40.25;101142.91;5098732;28;19931;-65
2022/12/06 12:09:17;;;;;;;;;;;;;;;-2.88;40.63;101127.97;5098522;28;20314;-65
2022/12/06 12:11:42;;;;;;;;;;;;;;;-3.26;41.17;101137.13;5095816;28;20028;-65
2022/12/06 12:14:14;;;;;;;;;;;;;;;-3.53;42.10;101141.50;5101180;28;20408;-65
2022/12/06 12:16:42;;;;;;;;;;;;;;;-3.47;42.26;101138.22;5097337;28;19935;-65
2022/12/06 12:19:23;;;;;;;;;;;;;;;-3.39;42.43;101134.78;5100658;28;19934;-66
2022/12/06 12:21:49;;;;;;;;;;;;;;;-3.15;41.87;101129.69;5099886;28;19928;-65
2022/12/06 12:24:33;;;;;;;;;;;;;;;-3.45;42.27;101139.75;5098431;28;19935;-65
2022/12/06 12:26:59;;;;;;;;;;;;;;;-4.26;43.89;101125.16;5097294;28;20049;-65
2022/12/06 12:29:26;;;;;;;;;;;;;;;-4.89;45.31;101135.38;5097150;28;20062;-65
2022/12/06 12:31:54;;;;;;;;;;;;;;;-5.27;46.66;101137.88;5092283;28;19936;-65
2022/12/06 12:34:20;;;;;;;;;;;;;;;-5.45;47.56;101144.84;5100262;28;19935;-65
2022/12/06 12:36:47;;;;;;;;;;;;;;;-5.63;47.88;101137.47;5098394;28;20078;-65
2022/12/06 12:39:21;;;;;;;;;;;;;;;-5.75;48.60;101139.41;5101669;28;19947;-65
2022/12/06 12:41:46;;;;;;;;;;;;;;;-5.88;48.94;101130.81;5093212;28;20398;-65
2022/12/06 12:44:14;;;;;;;;;;;;;;;-5.96;49.39;101143.97;5100128;28;20007;-65
2022/12/06 12:46:43;;;;;;;;;;;;;;;-6.10;50.06;101139.84;5098139;28;19928;-65
2022/12/06 12:49:23;;;;;;;;;;;;;;;-6.19;50.63;101138.81;5088507;28;20054;-65
2022/12/06 12:51:49;;;;;;;;;;;;;;;-6.32;50.97;101139.91;5094884;28;19974;-65
2022/12/06 12:54:19;;;;;;;;;;;;;;;-6.38;51.49;101145.72;5099931;28;19935;-65
2022/12/06 12:56:45;;;;;;;;;;;;;;;-6.43;51.81;101143.47;5101577;28;20391;-65